Time;durP1;ratioP1;P1;durP2;ratioP2;P2;SDS_P1;SDS_P2;PMS_P1;PMS_P2;Temp;Humidity;BMP_temperature;BMP_pressure;BME280_temperature;BME280_humidity;BME280_pressure;Samples;Min_cycle;Max_cycle;Signal;HPM_P1;HPM_P2
2022/06/15 00:00:01;;;;;;;6.35;2.10;;;;;;;-148.56;100.00;61375.16;5010412;28;20103;-27
2022/06/15 00:02:27;;;;;;;5.28;2.30;;;;;;;-148.56;100.00;61375.16;5011654;28;20033;-27
2022/06/15 00:04:52;;;;;;;5.43;2.00;;;;;;;-148.56;100.00;61375.16;5008380;28;20044;-34
2022/06/15 00:07:17;;;;;;;5.57;2.47;;;;;;;-148.56;100.00;61375.16;5007709;28;20039;-28
2022/06/15 00:09:43;;;;;;;4.93;2.33;;;;;;;-148.56;100.00;61375.16;5010453;28;20501;-29
2022/06/15 00:12:08;;;;;;;5.45;2.60;;;;;;;-148.56;100.00;61375.16;5009431;28;20040;-29
2022/06/15 00:14:34;;;;;;;4.93;2.25;;;;;;;-148.56;100.00;61375.16;5003323;28;20067;-31
2022/06/15 00:16:59;;;;;;;5.70;2.35;;;;;;;-148.56;100.00;61375.16;5006695;28;20029;-29
2022/06/15 00:19:25;;;;;;;6.82;2.20;;;;;;;-148.56;100.00;61375.16;5010551;28;20025;-30
2022/06/15 00:21:50;;;;;;;6.93;2.42;;;;;;;-148.56;100.00;61375.16;5009251;28;20040;-30
2022/06/15 00:24:16;;;;;;;4.28;2.10;;;;;;;-148.56;100.00;61375.16;5007031;28;20032;-33
2022/06/15 00:26:41;;;;;;;5.10;2.42;;;;;;;-148.56;100.00;61375.16;5009397;28;20097;-30
2022/06/15 00:29:07;;;;;;;5.10;2.28;;;;;;;-148.56;100.00;61375.16;5009487;28;20032;-29
2022/06/15 00:31:33;;;;;;;5.07;2.35;;;;;;;-148.56;100.00;61375.16;5012608;28;20057;-29
2022/06/15 00:33:58;;;;;;;5.72;2.33;;;;;;;-148.56;100.00;61375.16;5001627;28;20017;-29
2022/06/15 00:36:24;;;;;;;7.32;2.40;;;;;;;-148.56;100.00;61375.16;5008761;28;20059;-29
2022/06/15 00:38:51;;;;;;;3.72;2.22;;;;;;;-148.56;100.00;61375.16;5003120;28;20021;-28
2022/06/15 00:41:19;;;;;;;4.63;2.55;;;;;;;-148.56;100.00;61375.16;5008310;28;20077;-29
2022/06/15 00:43:48;;;;;;;3.45;2.00;;;;;;;-148.56;100.00;61375.16;5008903;28;20029;-29
2022/06/15 00:46:18;;;;;;;4.93;2.00;;;;;;;-148.56;100.00;61375.16;5002504;28;20039;-30
2022/06/15 00:48:44;;;;;;;5.60;2.17;;;;;;;-148.56;100.00;61375.16;5000576;28;20032;-28
2022/06/15 00:51:09;;;;;;;4.07;2.35;;;;;;;-148.56;100.00;61375.16;4991376;28;20020;-29
2022/06/15 00:53:35;;;;;;;3.08;2.05;;;;;;;-148.56;100.00;61375.16;4987664;28;20068;-29
2022/06/15 00:56:01;;;;;;;4.97;2.50;;;;;;;-148.56;100.00;61375.16;5010404;28;20097;-28
2022/06/15 00:58:26;;;;;;;5.40;2.08;;;;;;;-148.56;100.00;61375.16;4995952;28;20773;-29
2022/06/15 01:00:54;;;;;;;5.05;2.38;;;;;;;-148.56;100.00;61375.16;4994587;28;20025;-29
2022/06/15 01:03:19;;;;;;;4.10;2.05;;;;;;;-148.56;100.00;61375.16;5008990;28;20025;-29
2022/06/15 01:05:50;;;;;;;3.08;2.00;;;;;;;-148.56;100.00;61375.16;5008069;28;20597;-30
2022/06/15 01:09:08;;;;;;;3.00;2.10;;;;;;;-148.56;100.00;61375.16;4979615;28;20036;-27
2022/06/15 01:11:39;;;;;;;3.45;1.92;;;;;;;-148.56;100.00;61375.16;5010798;28;23161;-29
2022/06/15 01:14:59;;;;;;;2.75;2.00;;;;;;;-148.56;100.00;61375.16;5002119;28;20590;-28
2022/06/15 01:17:33;;;;;;;3.40;2.15;;;;;;;-148.56;100.00;61375.16;4943501;28;20081;-28
2022/06/15 01:20:17;;;;;;;4.72;1.90;;;;;;;-148.56;100.00;61375.16;4998866;28;20040;-29
2022/06/15 01:23:16;;;;;;;2.70;2.00;;;;;;;-148.56;100.00;61375.16;5008540;28;20025;-29
2022/06/15 01:26:19;;;;;;;6.13;2.38;;;;;;;-148.56;100.00;61375.16;5014574;28;20062;-29
2022/06/15 01:28:51;;;;;;;6.45;2.30;;;;;;;-148.56;100.00;61375.16;5016352;28;20263;-29
2022/06/15 01:31:47;;;;;;;4.57;2.22;;;;;;;-148.56;100.00;61375.16;5000599;28;20024;-33
2022/06/15 01:34:31;;;;;;;3.40;2.30;;;;;;;-148.56;100.00;61375.16;4985252;28;20645;-32
2022/06/15 01:36:59;;;;;;;2.88;1.95;;;;;;;-148.56;100.00;61375.16;5019322;28;20037;-29
2022/06/15 01:39:27;;;;;;;3.35;2.25;;;;;;;-148.56;100.00;61375.16;5016311;28;20037;-30
2022/06/15 01:42:00;;;;;;;3.25;1.92;;;;;;;-148.56;100.00;61375.16;5017095;28;20021;-29
2022/06/15 01:44:31;;;;;;;3.10;2.17;;;;;;;-148.56;100.00;61375.16;4994072;28;20060;-33
2022/06/15 01:46:56;;;;;;;3.60;2.20;;;;;;;-148.56;100.00;61375.16;4981940;28;20681;-31
2022/06/15 01:49:27;;;;;;;3.42;2.08;;;;;;;-148.56;100.00;61375.16;4998569;28;20032;-29
2022/06/15 01:51:52;;;;;;;4.10;2.13;;;;;;;-148.56;100.00;61375.16;5016873;28;20139;-29
2022/06/15 01:54:24;;;;;;;4.00;2.25;;;;;;;-148.56;100.00;61375.16;4999796;28;20909;-27
2022/06/15 01:56:50;;;;;;;4.10;2.17;;;;;;;-148.56;100.00;61375.16;4979602;28;20825;-30
2022/06/15 01:59:29;;;;;;;4.03;2.08;;;;;;;-148.56;100.00;61375.16;4989561;28;20029;-29
2022/06/15 02:02:00;;;;;;;6.90;2.10;;;;;;;-148.56;100.00;61375.16;5008889;28;20029;-30
2022/06/15 02:04:41;;;;;;;5.53;2.08;;;;;;;-148.56;100.00;61375.16;4990891;28;20017;-32
2022/06/15 02:07:34;;;;;;;4.82;2.13;;;;;;;-148.56;100.00;61375.16;4977210;28;20032;-30
2022/06/15 02:10:06;;;;;;;5.22;1.90;;;;;;;-148.56;100.00;61375.16;4983635;28;21256;-29
2022/06/15 02:13:10;;;;;;;2.38;1.85;;;;;;;-148.56;100.00;61375.16;4976211;28;20054;-29
2022/06/15 02:15:35;;;;;;;3.88;2.17;;;;;;;-148.56;100.00;61375.16;5007372;28;20033;-28
2022/06/15 02:18:04;;;;;;;3.40;2.30;;;;;;;-148.56;100.00;61375.16;4965967;28;20071;-30
2022/06/15 02:20:31;;;;;;;3.97;1.90;;;;;;;-148.56;100.00;61375.16;4989300;28;20799;-29
2022/06/15 02:22:58;;;;;;;2.60;1.80;;;;;;;-148.56;100.00;61375.16;5010270;28;20709;-28
2022/06/15 02:25:25;;;;;;;3.83;1.92;;;;;;;-148.56;100.00;61375.16;4987279;28;20476;-30
2022/06/15 02:27:50;;;;;;;3.85;1.67;;;;;;;-148.56;100.00;61375.16;4987002;28;20029;-29
2022/06/15 02:30:24;;;;;;;3.35;1.90;;;;;;;-148.56;100.00;61375.16;4988336;28;20128;-30
2022/06/15 02:32:50;;;;;;;3.15;2.03;;;;;;;-148.56;100.00;61375.16;4996506;28;20034;-32
2022/06/15 02:35:17;;;;;;;3.50;2.20;;;;;;;-148.56;100.00;61375.16;5000385;28;20033;-33
2022/06/15 02:37:43;;;;;;;2.90;1.98;;;;;;;-148.56;100.00;61375.16;5002879;28;20072;-30
2022/06/15 02:40:11;;;;;;;4.25;2.05;;;;;;;-148.56;100.00;61375.16;4998851;28;20148;-29
2022/06/15 02:42:37;;;;;;;3.92;2.03;;;;;;;-148.56;100.00;61375.16;4992290;28;20128;-30
2022/06/15 02:45:08;;;;;;;4.80;2.00;;;;;;;-148.56;100.00;61375.16;5007470;28;20060;-29
2022/06/15 02:47:35;;;;;;;1.77;1.58;;;;;;;-148.56;100.00;61375.16;4986718;28;20036;-30
2022/06/15 02:50:01;;;;;;;3.50;2.00;;;;;;;-148.56;100.00;61375.16;4968198;28;20036;-32
2022/06/15 02:52:29;;;;;;;2.67;1.90;;;;;;;-148.56;100.00;61375.16;4987562;28;20040;-30
2022/06/15 02:54:55;;;;;;;5.75;2.10;;;;;;;-148.56;100.00;61375.16;4984160;28;20098;-31
2022/06/15 02:57:21;;;;;;;4.13;2.10;;;;;;;-148.56;100.00;61375.16;4988781;28;20025;-35
2022/06/15 02:59:47;;;;;;;2.67;2.00;;;;;;;-148.56;100.00;61375.16;4973261;28;20492;-30
2022/06/15 03:02:16;;;;;;;2.75;2.10;;;;;;;-148.56;100.00;61375.16;4997715;28;20035;-32
2022/06/15 03:04:42;;;;;;;3.15;1.90;;;;;;;-148.56;100.00;61375.16;4986596;28;20048;-29
2022/06/15 03:07:08;;;;;;;3.47;2.13;;;;;;;-148.56;100.00;61375.16;5003436;28;20025;-30
2022/06/15 03:09:33;;;;;;;3.13;1.95;;;;;;;-148.56;100.00;61375.16;5007114;28;20681;-30
2022/06/15 03:11:58;;;;;;;2.55;2.10;;;;;;;-148.56;100.00;61375.16;4997180;28;20041;-29
2022/06/15 03:14:24;;;;;;;4.88;2.00;;;;;;;-148.56;100.00;61375.16;4997498;28;20519;-29
2022/06/15 03:16:49;;;;;;;4.07;2.13;;;;;;;-148.56;100.00;61375.16;4999016;28;20028;-29
2022/06/15 03:19:15;;;;;;;3.42;2.00;;;;;;;-148.56;100.00;61375.16;5003567;28;20037;-29
2022/06/15 03:21:40;;;;;;;4.32;2.38;;;;;;;-148.56;100.00;61375.16;5011064;28;20722;-31
2022/06/15 03:24:06;;;;;;;3.42;2.03;;;;;;;-148.56;100.00;61375.16;5002510;28;20106;-29
2022/06/15 03:26:32;;;;;;;4.50;2.10;;;;;;;-148.56;100.00;61375.16;5003933;28;20020;-30
2022/06/15 03:28:57;;;;;;;2.63;1.80;;;;;;;-148.56;100.00;61375.16;5009665;28;20599;-29
2022/06/15 03:31:23;;;;;;;4.65;2.15;;;;;;;-148.56;100.00;61375.16;5013802;28;20043;-29
2022/06/15 03:33:48;;;;;;;3.78;1.80;;;;;;;-148.56;100.00;61375.16;5019661;28;20160;-28
2022/06/15 03:36:13;;;;;;;3.28;2.00;;;;;;;-148.56;100.00;61375.16;5017798;28;21068;-28
2022/06/15 03:38:39;;;;;;;4.32;1.90;;;;;;;-148.56;100.00;61375.16;4999412;28;20040;-29
2022/06/15 03:41:04;;;;;;;7.32;2.17;;;;;;;-148.56;100.00;61375.16;5020907;28;20036;-29
2022/06/15 03:43:29;;;;;;;4.85;1.90;;;;;;;-148.56;100.00;61375.16;5018575;28;20120;-28
2022/06/15 03:45:56;;;;;;;5.88;2.13;;;;;;;-148.56;100.00;61375.16;5019773;28;20028;-29
2022/06/15 03:48:22;;;;;;;4.63;1.90;;;;;;;-148.56;100.00;61375.16;5018436;28;20594;-35
2022/06/15 03:50:48;;;;;;;5.35;2.30;;;;;;;-148.56;100.00;61375.16;5017784;28;20033;-29
2022/06/15 03:53:13;;;;;;;2.92;1.80;;;;;;;-148.56;100.00;61375.16;5017577;28;20024;-28
2022/06/15 03:55:40;;;;;;;4.75;2.05;;;;;;;-148.56;100.00;61375.16;5022092;28;20482;-29
2022/06/15 03:58:05;;;;;;;4.15;2.28;;;;;;;-148.56;100.00;61375.16;5019769;28;20116;-27
2022/06/15 04:00:31;;;;;;;3.13;1.95;;;;;;;-148.56;100.00;61375.16;5014321;28;20025;-31
2022/06/15 04:02:56;;;;;;;5.40;2.20;;;;;;;-148.56;100.00;61375.16;5021140;28;20029;-28
2022/06/15 04:05:32;;;;;;;8.52;2.08;;;;;;;-148.56;100.00;61375.16;5010514;28;20041;-29
2022/06/15 04:10:41;;;;;;;3.45;2.00;;;;;;;-148.56;100.00;61375.16;5011670;28;20037;-30
2022/06/15 04:13:07;;;;;;;7.68;2.28;;;;;;;-148.56;100.00;61375.16;5019136;28;20107;-29
2022/06/15 04:15:33;;;;;;;2.88;2.17;;;;;;;-148.56;100.00;61375.16;5007855;28;20120;-31
2022/06/15 04:17:58;;;;;;;3.55;1.98;;;;;;;-148.56;100.00;61375.16;4988100;28;20064;-30
2022/06/15 04:20:33;;;;;;;3.78;2.33;;;;;;;-148.56;100.00;61375.16;5009923;28;22699;-30
2022/06/15 04:23:09;;;;;;;4.60;1.95;;;;;;;-148.56;100.00;61375.16;4995343;28;20029;-31
2022/06/15 04:25:37;;;;;;;4.50;2.22;;;;;;;-148.56;100.00;61375.16;5009512;28;20122;-31
2022/06/15 04:28:04;;;;;;;4.93;2.05;;;;;;;-148.56;100.00;61375.16;4976669;28;20025;-31
2022/06/15 04:30:30;;;;;;;3.05;1.80;;;;;;;-148.56;100.00;61375.16;5013507;28;20021;-29
2022/06/15 04:32:55;;;;;;;3.03;2.10;;;;;;;-148.56;100.00;61375.16;5006698;28;20502;-30
2022/06/15 04:35:21;;;;;;;3.78;2.17;;;;;;;-148.56;100.00;61375.16;5020534;28;20954;-30
2022/06/15 04:37:46;;;;;;;2.97;2.10;;;;;;;-148.56;100.00;61375.16;5012112;28;20036;-30
2022/06/15 04:40:15;;;;;;;8.50;2.40;;;;;;;-148.56;100.00;61375.16;5007434;28;20542;-30
2022/06/15 04:42:41;;;;;;;4.47;2.45;;;;;;;-148.56;100.00;61375.16;4994048;28;20028;-31
2022/06/15 04:45:07;;;;;;;5.47;2.33;;;;;;;-148.56;100.00;61375.16;5005900;28;20036;-29
2022/06/15 04:47:32;;;;;;;4.13;2.10;;;;;;;-148.56;100.00;61375.16;5013323;28;20092;-28
2022/06/15 04:49:58;;;;;;;5.22;2.20;;;;;;;-148.56;100.00;61375.16;5008201;28;20034;-30
2022/06/15 04:52:23;;;;;;;6.43;2.17;;;;;;;-148.56;100.00;61375.16;5014437;28;20028;-28
2022/06/15 04:54:48;;;;;;;7.18;2.22;;;;;;;-148.56;100.00;61375.16;5012300;28;20103;-30
2022/06/15 04:57:14;;;;;;;3.97;2.20;;;;;;;-148.56;100.00;61375.16;5013299;28;20698;-29
2022/06/15 04:59:40;;;;;;;5.82;2.30;;;;;;;-148.56;100.00;61375.16;5011790;28;20080;-34
2022/06/15 05:02:05;;;;;;;4.25;2.55;;;;;;;-148.56;100.00;61375.16;5012663;28;20628;-28
2022/06/15 05:04:31;;;;;;;5.70;2.58;;;;;;;-148.56;100.00;61375.16;5008163;28;20032;-30
2022/06/15 05:06:56;;;;;;;3.33;2.38;;;;;;;-148.56;100.00;61375.16;5010006;28;20021;-30
2022/06/15 05:09:22;;;;;;;4.72;2.13;;;;;;;-148.56;100.00;61375.16;5013073;28;20343;-30
2022/06/15 05:11:47;;;;;;;7.13;2.30;;;;;;;-148.56;100.00;61375.16;5008507;28;20029;-28
2022/06/15 05:14:12;;;;;;;5.00;2.28;;;;;;;-148.56;100.00;61375.16;5006854;28;20036;-30
2022/06/15 05:16:38;;;;;;;3.70;2.30;;;;;;;-148.56;100.00;61375.16;5006430;28;20025;-30
2022/06/15 05:19:03;;;;;;;4.18;2.00;;;;;;;-148.56;100.00;61375.16;5017364;28;20772;-29
2022/06/15 05:21:29;;;;;;;5.38;2.30;;;;;;;-148.56;100.00;61375.16;5010383;28;20021;-28
2022/06/15 05:23:55;;;;;;;4.95;2.03;;;;;;;-148.56;100.00;61375.16;5007152;28;20033;-29
2022/06/15 05:26:24;;;;;;;6.03;2.17;;;;;;;-148.56;100.00;61375.16;5015654;28;20155;-31
2022/06/15 05:28:49;;;;;;;6.57;2.20;;;;;;;-148.56;100.00;61375.16;5017637;28;20063;-29
2022/06/15 05:31:20;;;;;;;4.22;2.15;;;;;;;-148.56;100.00;61375.16;5017745;28;20130;-29
2022/06/15 05:33:46;;;;;;;6.05;2.55;;;;;;;-148.56;100.00;61375.16;5018872;28;20675;-34
2022/06/15 05:36:13;;;;;;;4.30;2.25;;;;;;;-148.56;100.00;61375.16;5021510;28;20124;-29
2022/06/15 05:38:39;;;;;;;4.75;2.20;;;;;;;-148.56;100.00;61375.16;5014912;28;20878;-28
2022/06/15 05:41:05;;;;;;;2.65;1.98;;;;;;;-148.56;100.00;61375.16;5019884;28;20032;-31
2022/06/15 05:43:33;;;;;;;2.92;1.90;;;;;;;-148.56;100.00;61375.16;5018539;28;20294;-29
2022/06/15 05:45:58;;;;;;;4.90;2.10;;;;;;;-148.56;100.00;61375.16;5000615;28;20913;-29
2022/06/15 05:48:24;;;;;;;8.82;2.30;;;;;;;-148.56;100.00;61375.16;5018562;28;20032;-30
2022/06/15 05:50:49;;;;;;;5.68;2.13;;;;;;;-148.56;100.00;61375.16;5008737;28;20029;-29
2022/06/15 05:53:15;;;;;;;5.90;2.28;;;;;;;-148.56;100.00;61375.16;5019167;28;20029;-30
2022/06/15 05:55:40;;;;;;;8.30;2.13;;;;;;;-148.56;100.00;61375.16;5009014;28;20135;-30
2022/06/15 05:58:05;;;;;;;6.53;2.15;;;;;;;-148.56;100.00;61375.16;5008510;28;20078;-29
2022/06/15 06:00:31;;;;;;;3.30;1.77;;;;;;;-148.56;100.00;61375.16;5012208;28;20076;-29
2022/06/15 06:02:57;;;;;;;5.22;2.17;;;;;;;-148.56;100.00;61375.16;5009278;28;20258;-29
2022/06/15 06:05:23;;;;;;;5.63;2.00;;;;;;;-148.56;100.00;61375.16;5015258;28;20121;-30
2022/06/15 06:07:48;;;;;;;6.90;2.38;;;;;;;-148.56;100.00;61375.16;5014727;28;20029;-30
2022/06/15 06:10:14;;;;;;;6.75;2.00;;;;;;;-148.56;100.00;61375.16;5007462;28;20028;-29
2022/06/15 06:12:39;;;;;;;7.28;2.05;;;;;;;-148.56;100.00;61375.16;5003451;28;20427;-30
2022/06/15 06:15:05;;;;;;;5.70;2.13;;;;;;;-148.56;100.00;61375.16;5008411;28;20518;-29
2022/06/15 06:17:30;;;;;;;5.68;2.10;;;;;;;-148.56;100.00;61375.16;5008403;28;20119;-33
2022/06/15 06:19:56;;;;;;;4.80;1.92;;;;;;;-148.56;100.00;61375.16;5007643;28;20047;-31
2022/06/15 06:22:21;;;;;;;7.72;2.50;;;;;;;-148.56;100.00;61375.16;5002543;28;20029;-30
2022/06/15 06:24:47;;;;;;;10.02;4.10;;;;;;;-148.56;100.00;61375.16;5007543;28;20033;-28
2022/06/15 06:27:13;;;;;;;9.50;3.30;;;;;;;-148.56;100.00;61375.16;5014024;28;20919;-29
2022/06/15 06:29:39;;;;;;;6.53;3.15;;;;;;;-148.56;100.00;61375.16;4990598;28;20037;-30
2022/06/15 06:32:04;;;;;;;10.35;3.40;;;;;;;-148.56;100.00;61375.16;4999253;28;20832;-29
2022/06/15 06:34:30;;;;;;;8.30;3.40;;;;;;;-148.56;100.00;61375.16;5014607;28;20089;-30
2022/06/15 06:36:56;;;;;;;10.93;3.67;;;;;;;-148.56;100.00;61375.16;5002597;28;20035;-31
2022/06/15 06:39:24;;;;;;;7.45;3.22;;;;;;;-148.56;100.00;61375.16;5009178;28;20041;-30
2022/06/15 06:41:50;;;;;;;6.22;3.00;;;;;;;-148.56;100.00;61375.16;5004937;28;20052;-30
2022/06/15 06:44:16;;;;;;;10.10;3.40;;;;;;;-148.56;100.00;61375.16;5001892;28;20118;-28
2022/06/15 06:46:43;;;;;;;7.78;3.10;;;;;;;-148.56;100.00;61375.16;5010643;28;20024;-29
2022/06/15 06:49:09;;;;;;;9.70;3.47;;;;;;;-148.56;100.00;61375.16;5004858;28;21833;-29
2022/06/15 06:51:35;;;;;;;7.40;3.30;;;;;;;-148.56;100.00;61375.16;5010431;28;20048;-28
2022/06/15 06:54:01;;;;;;;7.05;3.20;;;;;;;-148.56;100.00;61375.16;5012089;28;20904;-30
2022/06/15 06:56:26;;;;;;;7.78;3.33;;;;;;;-148.56;100.00;61375.16;5022963;28;20037;-27
2022/06/15 06:58:52;;;;;;;7.50;3.30;;;;;;;-148.56;100.00;61375.16;5019545;28;20422;-29
2022/06/15 07:01:17;;;;;;;7.15;3.17;;;;;;;-148.56;100.00;61375.16;5013650;28;20033;-31
2022/06/15 07:03:42;;;;;;;7.85;3.35;;;;;;;-148.56;100.00;61375.16;5008931;28;20036;-28
2022/06/15 07:06:08;;;;;;;9.02;3.17;;;;;;;-148.56;100.00;61375.16;5010867;28;21605;-28
2022/06/15 07:08:34;;;;;;;7.97;3.30;;;;;;;-148.56;100.00;61375.16;5001737;28;20033;-30
2022/06/15 07:10:59;;;;;;;8.38;3.03;;;;;;;-148.56;100.00;61375.16;4997987;28;23299;-28
2022/06/15 07:13:25;;;;;;;6.63;2.97;;;;;;;-148.56;100.00;61375.16;5003123;28;21327;-29
2022/06/15 07:15:50;;;;;;;6.93;3.05;;;;;;;-148.56;100.00;61375.16;5003159;28;20695;-28
2022/06/15 07:18:16;;;;;;;8.10;2.63;;;;;;;-148.56;100.00;61375.16;5006613;28;20045;-29
2022/06/15 07:20:41;;;;;;;9.10;3.08;;;;;;;-148.56;100.00;61375.16;5017214;28;20052;-31
2022/06/15 07:23:07;;;;;;;6.30;2.83;;;;;;;-148.56;100.00;61375.16;5025519;28;20041;-29
2022/06/15 07:25:32;;;;;;;7.75;3.00;;;;;;;-148.56;100.00;61375.16;5007896;28;20075;-30
2022/06/15 07:27:57;;;;;;;7.07;2.90;;;;;;;-148.56;100.00;61375.16;5005733;28;20511;-29
2022/06/15 07:30:24;;;;;;;6.85;2.50;;;;;;;-148.56;100.00;61375.16;5008812;28;20488;-30
2022/06/15 07:32:50;;;;;;;8.00;3.03;;;;;;;-148.56;100.00;61375.16;5005577;28;20104;-30
2022/06/15 07:35:22;;;;;;;6.18;2.95;;;;;;;-148.56;100.00;61375.16;4999319;28;20033;-30
2022/06/15 07:37:48;;;;;;;5.60;2.53;;;;;;;-148.56;100.00;61375.16;5004452;28;20885;-29
2022/06/15 07:40:14;;;;;;;10.38;2.97;;;;;;;-148.56;100.00;61375.16;5001434;28;20548;-31
2022/06/15 07:42:39;;;;;;;6.10;2.63;;;;;;;-148.56;100.00;61375.16;5004922;28;20040;-30
2022/06/15 07:45:05;;;;;;;11.88;3.20;;;;;;;-148.56;100.00;61375.16;5007898;28;22452;-30
2022/06/15 07:50:15;;;;;;;8.00;3.05;;;;;;;-148.56;100.00;61375.16;5006940;28;20075;-29
2022/06/15 07:52:42;;;;;;;7.30;2.92;;;;;;;-148.56;100.00;61375.16;5016188;28;20090;-29
2022/06/15 07:55:09;;;;;;;6.20;2.95;;;;;;;-148.56;100.00;61375.16;5018958;28;20050;-29
2022/06/15 07:57:35;;;;;;;6.93;3.20;;;;;;;-148.56;100.00;61375.16;5021861;28;20028;-32
2022/06/15 08:00:01;;;;;;;7.80;3.80;;;;;;;-148.56;100.00;61375.16;5018440;28;20740;-29
2022/06/15 08:02:26;;;;;;;11.85;3.20;;;;;;;-148.56;100.00;61375.16;5018010;28;20049;-29
2022/06/15 08:04:52;;;;;;;14.93;3.17;;;;;;;-148.56;100.00;61375.16;5011116;28;20087;-37
2022/06/15 08:07:17;;;;;;;8.05;3.08;;;;;;;-148.56;100.00;61375.16;5024710;28;20036;-29
2022/06/15 08:09:43;;;;;;;12.70;3.40;;;;;;;-148.56;100.00;61375.16;5018531;28;20029;-29
2022/06/15 08:12:12;;;;;;;7.88;2.85;;;;;;;-148.56;100.00;61375.16;5015557;28;20265;-34
2022/06/15 08:14:43;;;;;;;8.02;2.80;;;;;;;-148.56;100.00;61375.16;5013328;28;20024;-32
2022/06/15 08:17:13;;;;;;;16.17;3.17;;;;;;;-148.56;100.00;61375.16;5014381;28;20044;-30
2022/06/15 08:19:41;;;;;;;9.50;2.93;;;;;;;-148.56;100.00;61375.16;5003011;28;20182;-28
2022/06/15 08:22:07;;;;;;;13.55;3.00;;;;;;;-148.56;100.00;61375.16;5015807;28;20291;-30
2022/06/15 08:24:32;;;;;;;17.85;3.42;;;;;;;-148.56;100.00;61375.16;5013038;28;20491;-31
2022/06/15 08:26:57;;;;;;;13.73;2.90;;;;;;;-148.56;100.00;61375.16;4990298;28;20052;-30
2022/06/15 08:29:23;;;;;;;11.93;3.20;;;;;;;-148.56;100.00;61375.16;5012433;28;20025;-30
2022/06/15 08:31:48;;;;;;;8.43;3.00;;;;;;;-148.56;100.00;61375.16;4997066;28;20072;-30
2022/06/15 08:34:14;;;;;;;17.85;3.05;;;;;;;-148.56;100.00;61375.16;5013958;28;20059;-27
2022/06/15 08:36:39;;;;;;;10.52;3.03;;;;;;;-148.56;100.00;61375.16;5012680;28;20037;-29
2022/06/15 08:39:05;;;;;;;16.60;3.00;;;;;;;-148.56;100.00;61375.16;5014357;28;20817;-28
2022/06/15 08:41:36;;;;;;;13.73;4.78;;;;;;;-148.56;100.00;61375.16;5024674;28;20024;-33
2022/06/15 08:44:04;;;;;;;14.95;4.03;;;;;;;-148.56;100.00;61375.16;5024404;28;20040;-29
2022/06/15 08:46:36;;;;;;;9.00;3.10;;;;;;;-148.56;100.00;61375.16;5023046;28;20756;-29
2022/06/15 08:49:16;;;;;;;13.57;3.95;;;;;;;-148.56;100.00;61375.16;5018000;28;20080;-32
2022/06/15 08:51:43;;;;;;;9.13;3.20;;;;;;;-148.56;100.00;61375.16;5021708;28;20035;-30
2022/06/15 08:54:23;;;;;;;10.15;3.40;;;;;;;-148.56;100.00;61375.16;5020149;28;20179;-30
2022/06/15 08:56:52;;;;;;;8.18;2.92;;;;;;;-148.56;100.00;61375.16;4991417;28;20559;-29
2022/06/15 08:59:29;;;;;;;10.10;2.75;;;;;;;-148.56;100.00;61375.16;5003247;28;20052;-29
2022/06/15 09:02:12;;;;;;;10.82;3.30;;;;;;;-148.56;100.00;61375.16;5021401;28;20032;-30
2022/06/15 09:04:52;;;;;;;13.73;3.40;;;;;;;-148.56;100.00;61375.16;5012335;28;20045;-30
2022/06/15 09:07:45;;;;;;;9.73;2.97;;;;;;;-148.56;100.00;61375.16;5023935;28;20025;-29
2022/06/15 09:10:33;;;;;;;33.65;3.70;;;;;;;-148.56;100.00;61375.16;5015885;28;20067;-29
2022/06/15 09:13:05;;;;;;;27.98;3.78;;;;;;;-148.56;100.00;61375.16;5003043;28;20020;-29
2022/06/15 09:15:49;;;;;;;20.40;4.07;;;;;;;-148.56;100.00;61375.16;5015542;28;20036;-28
2022/06/15 09:18:23;;;;;;;21.60;3.85;;;;;;;-148.56;100.00;61375.16;5015538;28;20037;-29
2022/06/15 09:20:52;;;;;;;21.45;3.80;;;;;;;-148.56;100.00;61375.16;5000801;28;20436;-28
2022/06/15 09:23:28;;;;;;;26.73;3.67;;;;;;;-148.56;100.00;61375.16;5016205;28;20045;-28
2022/06/15 09:26:02;;;;;;;16.95;4.00;;;;;;;-148.56;100.00;61375.16;5010406;28;20033;-29
2022/06/15 09:28:34;;;;;;;23.33;3.53;;;;;;;-148.56;100.00;61375.16;5024753;28;20082;-28
2022/06/15 09:31:06;;;;;;;16.63;3.67;;;;;;;-148.56;100.00;61375.16;4987077;28;20029;-29
2022/06/15 09:33:47;;;;;;;15.85;3.67;;;;;;;-148.56;100.00;61375.16;4992352;28;20033;-29
2022/06/15 09:36:17;;;;;;;14.10;3.90;;;;;;;-148.56;100.00;61375.16;5010568;28;20021;-28
2022/06/15 09:38:43;;;;;;;18.88;4.38;;;;;;;-148.56;100.00;61375.16;5008730;28;20708;-27
2022/06/15 09:41:10;;;;;;;16.83;4.30;;;;;;;-148.56;100.00;61375.16;4989972;28;20029;-33
2022/06/15 09:43:39;;;;;;;17.42;4.07;;;;;;;-148.56;100.00;61375.16;5002547;28;20387;-29
2022/06/15 09:46:23;;;;;;;14.93;3.92;;;;;;;-148.56;100.00;61375.16;5017039;28;20029;-29
2022/06/15 09:48:58;;;;;;;18.50;4.20;;;;;;;-148.56;100.00;61375.16;5002111;28;20081;-33
2022/06/15 09:51:29;;;;;;;11.40;4.00;;;;;;;-148.56;100.00;61375.16;5002960;28;20039;-29
2022/06/15 09:54:20;;;;;;;13.65;4.03;;;;;;;-148.56;100.00;61375.16;5024264;28;20024;-28
2022/06/15 09:56:47;;;;;;;14.85;4.22;;;;;;;-148.56;100.00;61375.16;5024542;28;20033;-30
2022/06/15 09:59:14;;;;;;;11.82;4.28;;;;;;;-148.56;100.00;61375.16;5017245;28;20808;-29
2022/06/15 10:01:42;;;;;;;10.73;4.50;;;;;;;-148.56;100.00;61375.16;5017589;28;20029;-29
2022/06/15 10:04:34;;;;;;;13.98;4.30;;;;;;;-148.56;100.00;61375.16;4999988;28;21148;-28
2022/06/15 10:07:00;;;;;;;13.00;3.92;;;;;;;-148.56;100.00;61375.16;5003692;28;20041;-30
2022/06/15 10:09:32;;;;;;;10.68;4.00;;;;;;;-148.56;100.00;61375.16;5003238;28;21094;-28
2022/06/15 10:14:43;;;;;;;13.15;3.50;;;;;;;-148.56;100.00;61375.16;4992205;28;20035;-29
2022/06/15 10:17:30;;;;;;;12.32;3.25;;;;;;;-148.56;100.00;61375.16;5021672;28;20029;-30
2022/06/15 10:19:56;;;;;;;10.52;3.63;;;;;;;-148.56;100.00;61375.16;5006911;28;20780;-29
2022/06/15 10:22:27;;;;;;;9.48;3.28;;;;;;;-148.56;100.00;61375.16;4999200;28;20037;-28
2022/06/15 10:24:53;;;;;;;20.58;3.95;;;;;;;-148.56;100.00;61375.16;5003654;28;20165;-29
2022/06/15 10:27:24;;;;;;;16.38;3.83;;;;;;;-148.56;100.00;61375.16;5003464;28;20780;-28
2022/06/15 10:30:00;;;;;;;13.93;3.65;;;;;;;-148.56;100.00;61375.16;5011851;28;20133;-28
2022/06/15 10:32:25;;;;;;;15.63;3.80;;;;;;;-148.56;100.00;61375.16;5011383;28;20043;-29
2022/06/15 10:34:55;;;;;;;11.52;3.25;;;;;;;-148.56;100.00;61375.16;5012398;28;20017;-33
2022/06/15 10:37:45;;;;;;;13.75;3.20;;;;;;;-148.56;100.00;61375.16;5010630;28;20624;-29
2022/06/15 10:40:18;;;;;;;23.10;3.75;;;;;;;-148.56;100.00;61375.16;4967569;28;20056;-29
2022/06/15 10:42:46;;;;;;;12.63;3.55;;;;;;;-148.56;100.00;61375.16;4994929;28;20251;-30
2022/06/15 10:45:40;;;;;;;14.48;3.45;;;;;;;-148.56;100.00;61375.16;4992157;28;20029;-30
2022/06/15 10:48:16;;;;;;;21.00;3.30;;;;;;;-148.56;100.00;61375.16;4990920;28;21025;-29
2022/06/15 10:51:00;;;;;;;15.25;3.35;;;;;;;-148.56;100.00;61375.16;4982002;28;20033;-28
2022/06/15 10:54:11;;;;;;;14.63;3.13;;;;;;;-148.56;100.00;61375.16;4989432;28;20029;-31
2022/06/15 11:02:28;;;;;;;10.35;2.78;;;;;;;-148.56;100.00;61375.16;5015928;28;20033;-30
2022/06/15 11:05:13;;;;;;;10.45;3.53;;;;;;;-148.56;100.00;61375.16;5015532;28;20044;-31
2022/06/15 11:07:45;;;;;;;8.75;2.90;;;;;;;-148.56;100.00;61375.16;5014097;28;20037;-28
2022/06/15 11:10:31;;;;;;;17.10;3.20;;;;;;;-148.56;100.00;61375.16;5000027;28;20118;-30
2022/06/15 11:13:21;;;;;;;32.55;3.78;;;;;;;-148.56;100.00;61375.16;4997043;28;20531;-32
2022/06/15 11:18:38;;;;;;;19.15;2.67;;;;;;;-148.56;100.00;61375.16;4992238;28;20074;-28
2022/06/15 11:21:19;;;;;;;18.38;3.00;;;;;;;-148.56;100.00;61375.16;5000028;28;20950;-29
2022/06/15 11:23:50;;;;;;;21.67;3.80;;;;;;;-148.56;100.00;61375.16;5026467;28;20037;-30
2022/06/15 11:26:54;;;;;;;12.38;3.00;;;;;;;-148.56;100.00;61375.16;5003394;28;20476;-28
2022/06/15 11:29:20;;;;;;;18.80;3.42;;;;;;;-148.56;100.00;61375.16;4983789;28;20029;-28
2022/06/15 11:31:46;;;;;;;9.00;3.08;;;;;;;-148.56;100.00;61375.16;5019798;28;20091;-28
2022/06/15 11:34:16;;;;;;;12.27;2.70;;;;;;;-148.56;100.00;61375.16;4994362;28;20020;-29